Time;durP1;ratioP1;P1;durP2;ratioP2;P2;SDS_P1;SDS_P2;PMS_P1;PMS_P2;Temp;Humidity;BMP_temperature;BMP_pressure;BME280_temperature;BME280_humidity;BME280_pressure;Samples;Min_cycle;Max_cycle;Signal;HPM_P1;HPM_P2
2022/05/18 00:00:51;;;;;;;6.57;2.15;;;;;;;20.26;45.49;100835.38;5035524;28;20025;-75
2022/05/18 00:03:21;;;;;;;4.85;1.50;;;;;;;20.28;45.34;100838.56;5035534;28;20029;-75
2022/05/18 00:05:48;;;;;;;7.60;1.88;;;;;;;20.09;45.81;100842.28;5035536;28;20084;-75
2022/05/18 00:08:14;;;;;;;3.13;1.55;;;;;;;20.08;45.90;100837.09;5035213;28;20037;-76
2022/05/18 00:10:45;;;;;;;4.47;1.83;;;;;;;19.91;46.05;100847.56;5035662;28;20083;-75
2022/05/18 00:13:11;;;;;;;6.30;1.70;;;;;;;19.91;46.05;100841.22;5035444;28;20391;-76
2022/05/18 00:15:38;;;;;;;6.97;2.40;;;;;;;19.81;46.35;100839.91;5035393;28;20051;-75
2022/05/18 00:18:04;;;;;;;4.22;1.40;;;;;;;19.81;46.34;100845.44;5034713;28;20388;-75
2022/05/18 00:20:30;;;;;;;6.38;2.13;;;;;;;19.61;46.88;100846.72;5016937;28;20029;-76
2022/05/18 00:22:59;;;;;;;6.25;2.10;;;;;;;19.58;46.75;100830.84;5035184;28;20041;-75
2022/05/18 00:25:28;;;;;;;7.65;3.20;;;;;;;19.79;46.29;100844.19;5035139;28;20026;-75
2022/05/18 00:28:01;;;;;;;10.77;2.22;;;;;;;20.06;45.58;100853.34;5035135;28;20472;-76
2022/05/18 00:30:28;;;;;;;10.55;3.45;;;;;;;20.20;45.04;100853.53;5034877;28;20487;-76
2022/05/18 00:32:54;;;;;;;12.18;3.28;;;;;;;20.00;45.65;100847.31;5035035;28;20383;-75
2022/05/18 00:35:21;;;;;;;12.07;2.50;;;;;;;20.02;45.62;100850.50;5034680;28;20032;-75
2022/05/18 00:37:46;;;;;;;9.38;2.13;;;;;;;19.89;45.96;100847.16;5034876;28;20033;-75
2022/05/18 00:40:15;;;;;;;14.57;3.95;;;;;;;20.09;45.35;100852.56;5034796;28;20029;-75
2022/05/18 00:42:41;;;;;;;11.18;2.42;;;;;;;20.33;44.65;100854.91;5027316;28;20183;-75
2022/05/18 00:45:08;;;;;;;13.48;2.40;;;;;;;20.31;44.67;100857.22;5034878;28;20076;-76
2022/05/18 00:47:33;;;;;;;12.30;2.65;;;;;;;19.90;45.92;100868.16;5034782;28;20417;-76
2022/05/18 00:50:04;;;;;;;7.88;2.72;;;;;;;20.15;45.16;100859.41;5034475;28;20127;-76
2022/05/18 00:52:40;;;;;;;8.50;2.50;;;;;;;20.10;45.32;100868.03;5034677;28;20086;-76
2022/05/18 00:55:10;;;;;;;15.15;3.40;;;;;;;20.04;45.44;100880.66;5034624;28;20025;-76
2022/05/18 00:57:44;;;;;;;16.60;3.83;;;;;;;19.98;45.48;100871.03;5016810;28;20130;-75
2022/05/18 01:00:14;;;;;;;10.88;2.92;;;;;;;20.04;45.28;100875.09;5034744;28;20042;-75
2022/05/18 01:02:43;;;;;;;;;;;;;;;20.05;45.34;100876.69;5034618;28;20422;-76
2022/05/18 01:05:14;;;;;;;11.00;3.05;;;;;;;20.07;45.15;100880.69;5034664;28;20268;-75
2022/05/18 01:07:52;;;;;;;13.90;4.07;;;;;;;20.17;44.92;100879.22;5034418;28;20483;-75
2022/05/18 01:10:17;;;;;;;13.77;3.03;;;;;;;20.14;44.81;100886.34;5034391;28;20060;-75
2022/05/18 01:12:45;;;;;;;10.45;3.67;;;;;;;20.37;44.18;100883.50;5034110;28;20431;-76
2022/05/18 01:15:13;;;;;;;15.02;3.47;;;;;;;20.24;44.62;100885.69;5034450;28;20379;-75
2022/05/18 01:17:44;;;;;;;6.40;2.30;;;;;;;20.41;44.09;100892.69;5034207;28;20075;-76
2022/05/18 01:20:14;;;;;;;;;;;;;;;20.29;44.33;100892.88;5034469;28;20041;-75
2022/05/18 01:22:58;;;;;;;13.05;3.33;;;;;;;20.44;44.00;100891.16;5034319;28;19924;-75
2022/05/18 01:25:39;;;;;;;17.05;3.38;;;;;;;20.28;44.30;100885.75;5034358;28;20071;-75
2022/05/18 01:28:06;;;;;;;14.32;3.78;;;;;;;20.30;44.13;100894.47;5033987;28;20032;-76
2022/05/18 01:30:33;;;;;;;13.57;3.50;;;;;;;20.02;44.87;100894.88;5033527;28;20029;-75
2022/05/18 01:33:03;;;;;;;13.60;3.08;;;;;;;20.13;44.57;100892.28;5014099;28;20140;-76
2022/05/18 01:35:31;;;;;;;15.57;3.30;;;;;;;20.06;44.79;100892.97;5014127;28;20037;-75
2022/05/18 01:37:59;;;;;;;15.02;3.55;;;;;;;20.09;44.58;100888.63;5014245;28;20057;-76
2022/05/18 01:40:58;;;;;;;12.70;3.40;;;;;;;19.95;44.93;100892.81;5013995;28;20026;-75
2022/05/18 01:43:38;;;;;;;11.45;2.92;;;;;;;20.02;44.85;100889.31;5013712;28;20049;-76
2022/05/18 01:46:10;;;;;;;18.80;3.90;;;;;;;20.14;44.35;100893.88;5013888;28;20508;-76
2022/05/18 01:48:40;;;;;;;18.95;4.13;;;;;;;20.34;43.86;100889.81;5026555;28;20492;-76
2022/05/18 01:51:07;;;;;;;12.40;3.00;;;;;;;20.42;43.71;100883.16;5027879;28;20037;-76
2022/05/18 01:53:34;;;;;;;15.70;3.83;;;;;;;20.39;43.74;100889.44;5033486;28;20117;-75
2022/05/18 01:56:00;;;;;;;15.55;3.45;;;;;;;20.04;44.48;100897.28;5033374;28;20025;-76
2022/05/18 01:58:25;;;;;;;14.02;2.88;;;;;;;20.21;44.16;100900.31;5033602;28;20026;-76
2022/05/18 02:00:52;;;;;;;10.63;3.38;;;;;;;20.26;43.84;100890.88;5033203;28;20498;-75
2022/05/18 02:03:20;;;;;;;11.98;2.72;;;;;;;20.06;44.40;100895.72;5033254;28;20475;-75
2022/05/18 02:05:46;;;;;;;15.25;3.05;;;;;;;20.18;44.05;100908.59;5032882;28;20038;-75
2022/05/18 02:08:13;;;;;;;17.33;4.68;;;;;;;19.93;44.66;100920.09;5033232;28;20021;-75
2022/05/18 02:10:39;;;;;;;11.38;2.75;;;;;;;19.96;44.35;100913.03;5033224;28;20476;-75
2022/05/18 02:13:05;;;;;;;13.63;3.55;;;;;;;20.08;44.22;100909.22;5033113;28;20029;-75
2022/05/18 02:15:31;;;;;;;12.88;3.72;;;;;;;20.08;44.21;100896.16;5033322;28;20026;-76
2022/05/18 02:17:56;;;;;;;13.80;3.53;;;;;;;20.06;44.27;100917.91;5033087;28;20437;-75
2022/05/18 02:20:22;;;;;;;13.23;3.88;;;;;;;19.71;45.05;100918.13;5032935;28;20030;-75
2022/05/18 02:22:49;;;;;;;15.73;3.88;;;;;;;20.04;44.07;100908.38;5032995;28;20033;-76
2022/05/18 02:25:15;;;;;;;16.15;3.55;;;;;;;20.20;43.58;100909.03;5032762;28;20033;-75
2022/05/18 02:27:40;;;;;;;13.48;2.65;;;;;;;20.06;44.12;100922.66;5033224;28;20029;-76
2022/05/18 02:30:08;;;;;;;8.57;2.88;;;;;;;19.79;44.48;100919.84;5015213;28;20468;-75
2022/05/18 02:32:33;;;;;;;13.80;3.40;;;;;;;20.16;43.80;100919.25;5032816;28;20025;-75
2022/05/18 02:34:59;;;;;;;10.77;3.10;;;;;;;20.10;44.03;100931.84;5032758;28;20037;-75
2022/05/18 02:37:26;;;;;;;18.42;4.43;;;;;;;20.14;43.76;100943.78;5033052;28;20025;-76
2022/05/18 02:39:52;;;;;;;12.13;3.10;;;;;;;20.19;43.58;100935.16;5032938;28;20065;-76
2022/05/18 02:42:18;;;;;;;18.42;3.67;;;;;;;20.07;43.94;100941.72;5031640;28;20484;-75
2022/05/18 02:44:43;;;;;;;11.85;3.08;;;;;;;20.01;44.09;100948.75;5032359;28;20076;-76
2022/05/18 02:47:09;;;;;;;12.57;3.58;;;;;;;20.03;43.91;100951.16;5032919;28;20067;-76
2022/05/18 02:49:35;;;;;;;10.10;3.08;;;;;;;19.82;44.41;100960.72;5032586;28;20502;-75
2022/05/18 02:52:00;;;;;;;9.88;2.97;;;;;;;19.98;43.99;100966.13;5032647;28;20021;-75
2022/05/18 02:57:10;;;;;;;20.20;4.32;;;;;;;20.04;43.97;100970.19;5032879;28;20035;-76
2022/05/18 02:59:36;;;;;;;14.63;3.28;;;;;;;20.02;43.82;100964.19;5032426;28;20037;-75
2022/05/18 03:02:03;;;;;;;12.80;3.30;;;;;;;19.89;44.31;100977.47;5032281;28;20034;-75
2022/05/18 03:04:30;;;;;;;12.02;2.70;;;;;;;19.91;44.15;100980.69;5032169;28;20075;-75
2022/05/18 03:06:56;;;;;;;16.98;3.88;;;;;;;19.78;44.40;100979.25;5032434;28;20480;-76
2022/05/18 03:09:22;;;;;;;18.33;4.47;;;;;;;19.86;44.32;100972.66;5032394;28;20044;-76
2022/05/18 03:11:48;;;;;;;14.52;4.20;;;;;;;19.83;44.41;100981.72;5032342;28;20021;-78
2022/05/18 03:14:14;;;;;;;14.43;3.08;;;;;;;19.72;44.71;100979.94;5032118;28;20026;-75
2022/05/18 03:16:43;;;;;;;17.15;3.90;;;;;;;19.74;44.63;100986.72;5032367;28;20056;-76
2022/05/18 03:19:13;;;;;;;14.07;4.13;;;;;;;19.90;44.16;100981.84;5032592;28;20029;-76
2022/05/18 03:24:23;;;;;;;19.33;3.50;;;;;;;19.92;43.99;100995.34;5032623;28;20033;-76
2022/05/18 03:26:49;;;;;;;14.52;3.03;;;;;;;19.68;44.69;100997.31;5031936;28;20025;-76
2022/05/18 03:29:14;;;;;;;14.27;3.50;;;;;;;20.00;43.82;100993.50;5032512;28;20017;-76
2022/05/18 03:31:40;;;;;;;15.00;3.58;;;;;;;19.81;44.33;100992.41;5032135;28;20427;-75
2022/05/18 03:34:08;;;;;;;14.13;3.40;;;;;;;19.79;44.29;101002.22;5032158;28;20045;-76
2022/05/18 03:36:34;;;;;;;10.73;2.90;;;;;;;19.89;43.89;101002.44;5031856;28;20030;-76
2022/05/18 03:39:01;;;;;;;12.90;3.45;;;;;;;19.82;44.13;101007.84;5031987;28;20025;-75
2022/05/18 03:41:26;;;;;;;15.52;3.88;;;;;;;19.85;44.12;101012.66;5032401;28;20033;-76
2022/05/18 03:43:52;;;;;;;10.93;4.05;;;;;;;19.84;44.00;101008.28;5031635;28;20558;-76
2022/05/18 03:46:18;;;;;;;16.67;4.95;;;;;;;19.82;44.04;101005.09;5014354;28;20061;-76
2022/05/18 03:48:44;;;;;;;19.70;4.28;;;;;;;19.77;44.25;101007.34;5032128;28;20017;-76
2022/05/18 03:51:12;;;;;;;15.60;4.35;;;;;;;19.92;43.84;101012.78;5014056;28;20087;-75
2022/05/18 03:53:38;;;;;;;14.13;3.10;;;;;;;19.94;43.74;101013.22;5034155;28;20453;-77
2022/05/18 03:56:04;;;;;;;14.02;3.42;;;;;;;19.87;43.99;101026.94;5035747;28;20105;-76
2022/05/18 03:58:30;;;;;;;18.38;4.97;;;;;;;19.88;43.59;101027.78;5035666;28;20035;-76
2022/05/18 04:01:00;;;;;;;17.60;5.05;;;;;;;19.87;43.80;101034.47;5035483;28;20037;-77
2022/05/18 04:03:27;;;;;;;21.60;3.90;;;;;;;19.86;43.67;101041.97;5035597;28;20087;-76
2022/05/18 04:05:54;;;;;;;13.80;3.70;;;;;;;19.83;43.95;101039.16;5035522;28;20076;-76
2022/05/18 04:08:20;;;;;;;12.45;3.45;;;;;;;19.85;43.84;101045.94;5035538;28;20030;-76
2022/05/18 04:10:47;;;;;;;16.85;3.88;;;;;;;19.99;43.55;101045.38;5035699;28;20036;-75
2022/05/18 04:13:17;;;;;;;19.73;4.20;;;;;;;20.17;43.02;101042.91;5035240;28;20059;-75
2022/05/18 04:15:42;;;;;;;15.90;4.15;;;;;;;20.02;43.21;101041.06;5035379;28;20041;-75
2022/05/18 04:18:08;;;;;;;16.80;4.00;;;;;;;19.94;43.46;101052.03;5017261;28;20033;-75
2022/05/18 04:20:34;;;;;;;12.55;3.95;;;;;;;20.11;43.13;101052.75;5035412;28;20025;-75
2022/05/18 04:23:00;;;;;;;16.10;3.67;;;;;;;20.11;43.06;101063.84;5035253;28;20502;-76
2022/05/18 04:25:27;;;;;;;18.13;4.22;;;;;;;20.07;43.18;101068.50;5035186;28;20025;-75
2022/05/18 04:27:54;;;;;;;13.20;4.55;;;;;;;19.85;43.72;101059.00;5035113;28;20072;-75
2022/05/18 04:30:24;;;;;;;14.18;3.95;;;;;;;20.13;43.07;101055.94;5034899;28;20103;-73
2022/05/18 04:32:51;;;;;;;19.38;3.70;;;;;;;20.11;43.07;101063.84;5035029;28;20021;-73
2022/05/18 04:35:19;;;;;;;27.65;4.93;;;;;;;20.09;43.14;101057.84;5035097;28;20029;-73
2022/05/18 04:37:44;;;;;;;14.48;3.60;;;;;;;20.17;43.02;101073.44;5034711;28;20112;-75
2022/05/18 04:40:10;;;;;;;16.70;4.13;;;;;;;20.21;42.93;101074.31;5034862;28;20113;-73
2022/05/18 04:42:36;;;;;;;17.65;4.00;;;;;;;20.22;42.86;101071.16;5034577;28;20048;-74
2022/05/18 04:45:05;;;;;;;23.15;4.95;;;;;;;20.21;43.04;101074.31;5034865;28;20034;-73
2022/05/18 04:47:30;;;;;;;16.25;3.40;;;;;;;20.12;43.23;101070.97;5034800;28;20383;-74
2022/05/18 04:49:57;;;;;;;20.98;4.65;;;;;;;20.14;43.24;101080.53;5034992;28;20017;-74
2022/05/18 04:52:23;;;;;;;17.33;3.75;;;;;;;20.21;43.16;101085.41;5034669;28;20030;-74
2022/05/18 04:54:49;;;;;;;15.30;3.63;;;;;;;20.30;43.01;101083.16;5034698;28;20071;-73
2022/05/18 04:57:16;;;;;;;15.48;4.68;;;;;;;20.32;43.04;101083.59;5034588;28;20029;-74
2022/05/18 04:59:42;;;;;;;17.13;4.70;;;;;;;20.21;43.50;101090.94;5034534;28;20065;-74
2022/05/18 05:02:07;;;;;;;19.13;4.15;;;;;;;20.19;43.45;101082.19;5034507;28;20129;-74
2022/05/18 05:04:35;;;;;;;18.30;4.53;;;;;;;20.24;43.45;101084.66;5033959;28;20025;-74
2022/05/18 05:07:00;;;;;;;15.18;3.42;;;;;;;20.26;43.38;101085.09;5034456;28;20147;-74
2022/05/18 05:09:26;;;;;;;16.88;5.15;;;;;;;20.33;43.32;101087.16;5034613;28;20025;-74
2022/05/18 05:11:52;;;;;;;17.63;4.28;;;;;;;20.45;43.14;101096.16;5034384;28;20105;-74
2022/05/18 05:14:19;;;;;;;13.23;3.70;;;;;;;20.42;43.15;101098.84;5034335;28;20032;-74
2022/05/18 05:16:44;;;;;;;13.05;3.35;;;;;;;20.39;43.34;101100.38;5033931;28;20031;-73
2022/05/18 05:19:11;;;;;;;16.67;4.10;;;;;;;20.36;43.44;101098.34;5034076;28;20076;-74
2022/05/18 05:21:41;;;;;;;20.67;4.45;;;;;;;20.47;43.25;101104.09;5034423;28;20391;-74
2022/05/18 05:24:14;;;;;;;15.93;3.58;;;;;;;20.23;43.93;101106.03;5033974;28;20022;-74
2022/05/18 05:26:41;;;;;;;13.45;3.60;;;;;;;20.34;43.80;101105.44;5034060;28;20034;-75
2022/05/18 05:29:07;;;;;;;17.77;4.30;;;;;;;20.52;43.31;101114.88;5033537;28;20021;-74
2022/05/18 05:31:33;;;;;;;15.05;3.38;;;;;;;20.52;43.37;101122.41;5033430;28;20021;-75
2022/05/18 05:33:59;;;;;;;11.13;2.92;;;;;;;20.46;43.40;101119.16;5034163;28;20090;-75
2022/05/18 05:36:25;;;;;;;17.15;4.47;;;;;;;20.52;43.59;101134.31;5033919;28;20047;-78
2022/05/18 05:38:51;;;;;;;15.57;3.55;;;;;;;20.61;43.65;101142.41;5033847;28;20542;-74
2022/05/18 05:41:17;;;;;;;16.52;4.07;;;;;;;20.82;43.30;101148.28;5033484;28;20116;-79
2022/05/18 05:43:43;;;;;;;12.05;3.42;;;;;;;21.01;42.87;101162.09;5033094;28;20085;-78
2022/05/18 05:46:13;;;;;;;19.92;4.00;;;;;;;21.22;42.63;101169.94;5032283;28;20103;-75
2022/05/18 05:48:41;;;;;;;15.93;4.15;;;;;;;21.25;42.39;101173.97;5027609;28;20037;-75
2022/05/18 05:51:10;;;;;;;12.57;3.85;;;;;;;;;;5032372;28;20036;-75
2022/05/18 05:53:36;;;;;;;11.32;3.38;;;;;;;21.65;41.57;101189.22;5029689;28;20112;-79
2022/05/18 05:56:02;;;;;;;16.27;3.33;;;;;;;21.87;41.32;101191.09;5029454;28;20442;-75
2022/05/18 05:58:33;;;;;;;13.50;4.30;;;;;;;21.81;41.58;101193.41;5032160;28;20101;-76
2022/05/18 06:00:58;;;;;;;14.88;4.00;;;;;;;21.77;41.79;101203.69;5032074;28;20061;-76
2022/05/18 06:03:25;;;;;;;17.60;4.47;;;;;;;21.96;41.29;101207.47;5032104;28;20060;-76
2022/05/18 06:05:51;;;;;;;17.58;4.50;;;;;;;21.84;41.50;101208.53;5031928;28;20033;-75
2022/05/18 06:08:17;;;;;;;12.95;3.85;;;;;;;21.78;41.70;101210.06;5031816;28;20028;-75
2022/05/18 06:10:42;;;;;;;19.92;4.07;;;;;;;21.78;41.54;101205.28;5031815;28;20025;-75
2022/05/18 06:13:10;;;;;;;14.93;3.42;;;;;;;21.83;41.42;101218.84;5032016;28;20053;-75
2022/05/18 06:15:36;;;;;;;16.33;4.50;;;;;;;21.83;41.34;101215.25;5031627;28;20056;-74
2022/05/18 06:18:01;;;;;;;16.48;3.95;;;;;;;21.84;41.60;101219.69;5025377;28;20053;-74
2022/05/18 06:20:27;;;;;;;14.23;3.78;;;;;;;21.80;41.64;101213.25;5031697;28;20104;-74
2022/05/18 06:22:53;;;;;;;17.55;4.28;;;;;;;21.97;41.09;101221.00;5032223;28;20034;-74
2022/05/18 06:25:19;;;;;;;18.30;3.75;;;;;;;21.93;41.34;101211.03;5033185;28;20123;-74
2022/05/18 06:27:44;;;;;;;19.67;5.25;;;;;;;22.10;41.04;101208.47;5033234;28;20025;-75
2022/05/18 06:30:13;;;;;;;25.60;4.32;;;;;;;22.19;41.00;101210.16;5031443;28;20033;-79
2022/05/18 06:32:38;;;;;;;22.77;4.55;;;;;;;22.30;41.52;101203.53;5031750;28;20038;-75
2022/05/18 06:35:05;;;;;;;19.52;3.47;;;;;;;22.36;41.34;101206.75;5031286;28;20029;-75
2022/05/18 06:37:31;;;;;;;24.80;4.55;;;;;;;22.42;41.33;101208.81;5032748;28;20037;-75
2022/05/18 06:39:57;;;;;;;20.33;5.25;;;;;;;22.49;41.43;101207.28;5032037;28;20056;-76
2022/05/18 06:45:08;;;;;;;17.05;4.20;;;;;;;22.61;41.08;101216.19;5140598;22;20415;-74
2022/05/18 06:47:34;;;;;;;19.45;4.90;;;;;;;22.74;41.30;101216.66;5009347;28;20038;-76
2022/05/18 06:50:00;;;;;;;19.67;4.18;;;;;;;22.60;41.27;101205.44;5022173;28;20033;-75
2022/05/18 06:52:25;;;;;;;18.13;4.57;;;;;;;22.86;40.76;101216.41;5012479;28;20108;-74
2022/05/18 06:54:51;;;;;;;21.70;4.07;;;;;;;22.86;40.76;101224.78;5011542;28;20026;-74
2022/05/18 06:57:17;;;;;;;16.50;3.20;;;;;;;23.00;40.57;101224.09;5007586;28;20045;-75
2022/05/18 06:59:43;;;;;;;16.92;3.88;;;;;;;22.78;41.07;101227.84;4994988;28;20106;-75
2022/05/18 07:02:08;;;;;;;32.45;5.85;;;;;;;23.08;40.19;101239.69;4995016;28;20037;-75
2022/05/18 07:04:34;;;;;;;17.05;4.15;;;;;;;23.18;39.67;101235.38;4994403;28;20030;-75
2022/05/18 07:07:00;;;;;;;23.00;5.00;;;;;;;23.10;39.87;101236.50;5001271;28;20018;-75
2022/05/18 07:09:26;;;;;;;24.27;4.88;;;;;;;23.04;39.70;101255.56;5010813;28;20060;-74
2022/05/18 07:11:52;;;;;;;19.20;4.40;;;;;;;23.29;39.13;101261.34;5010528;28;20026;-75
2022/05/18 07:14:21;;;;;;;13.57;3.40;;;;;;;23.30;39.05;101246.22;5010650;28;20104;-75
2022/05/18 07:16:47;;;;;;;17.27;4.10;;;;;;;23.33;39.08;101262.16;5008491;28;20480;-76
2022/05/18 07:19:15;;;;;;;16.88;4.10;;;;;;;23.29;38.70;101268.94;4997301;28;20030;-76
2022/05/18 07:21:40;;;;;;;22.45;7.72;;;;;;;23.21;38.80;101270.84;4994007;28;20033;-75
2022/05/18 07:24:07;;;;;;;17.27;4.35;;;;;;;23.20;38.80;101284.00;4995551;28;20032;-75
2022/05/18 07:26:34;;;;;;;17.95;3.78;;;;;;;23.22;38.61;101287.19;4996507;28;20117;-75
2022/05/18 07:29:01;;;;;;;19.17;4.00;;;;;;;23.17;38.64;101295.91;4998070;28;20029;-75
2022/05/18 07:31:29;;;;;;;18.05;4.05;;;;;;;23.50;38.48;101297.75;5001008;28;20205;-75
2022/05/18 07:33:54;;;;;;;15.80;4.68;;;;;;;23.64;38.26;101299.06;5016026;28;20030;-75
2022/05/18 07:36:20;;;;;;;15.70;4.60;;;;;;;23.82;38.29;101297.19;5016303;28;20033;-75
2022/05/18 07:38:46;;;;;;;16.30;4.60;;;;;;;23.95;37.96;101294.84;5015964;28;20028;-75
2022/05/18 07:41:14;;;;;;;20.52;4.72;;;;;;;23.97;37.91;101301.66;5014257;28;20121;-75
2022/05/18 07:43:40;;;;;;;16.38;3.58;;;;;;;24.02;38.24;101298.47;5015763;28;20056;-75
2022/05/18 07:46:07;;;;;;;15.90;3.85;;;;;;;23.89;37.77;101294.44;5016106;28;20061;-75
2022/05/18 07:48:33;;;;;;;11.38;4.05;;;;;;;24.00;37.61;101300.06;5014469;28;20018;-79
2022/05/18 07:50:59;;;;;;;14.20;3.85;;;;;;;24.24;37.47;101307.75;5015725;28;20435;-75
2022/05/18 07:53:25;;;;;;;20.65;3.90;;;;;;;24.22;37.26;101312.94;5013003;28;20036;-76
2022/05/18 07:55:51;;;;;;;16.40;4.47;;;;;;;24.29;37.28;101298.19;5015989;28;20030;-74
2022/05/18 07:58:19;;;;;;;11.55;3.35;;;;;;;24.32;37.00;101306.59;5014232;28;20026;-74
2022/05/18 08:00:46;;;;;;;21.17;4.28;;;;;;;24.37;37.28;101304.66;5014871;28;20040;-75
2022/05/18 08:03:12;;;;;;;10.13;3.20;;;;;;;24.26;37.52;101293.41;5015684;28;20104;-79
2022/05/18 08:05:39;;;;;;;9.65;3.20;;;;;;;24.21;37.08;101297.38;5015646;28;20536;-75
2022/05/18 08:08:12;;;;;;;17.33;3.67;;;;;;;24.51;36.86;101304.69;5015948;28;20037;-75
2022/05/18 08:16:07;;;;;;;15.45;3.95;;;;;;;24.82;36.30;101298.38;5015763;28;20100;-75
2022/05/18 08:18:33;;;;;;;16.45;4.22;;;;;;;24.92;36.18;101300.38;5015230;28;20446;-75
2022/05/18 08:20:58;;;;;;;11.52;3.70;;;;;;;25.06;36.50;101301.63;5015607;28;20088;-75
2022/05/18 08:23:25;;;;;;;16.20;4.55;;;;;;;25.07;36.32;101297.63;5007418;28;20038;-75
2022/05/18 08:25:53;;;;;;;19.75;4.25;;;;;;;25.06;36.26;101288.44;4982495;28;20390;-75
2022/05/18 08:28:18;;;;;;;13.60;3.83;;;;;;;25.40;35.54;101290.84;5000201;28;20088;-75
2022/05/18 08:30:44;;;;;;;24.55;4.53;;;;;;;25.43;35.45;101290.81;4998743;28;20030;-75
2022/05/18 08:33:11;;;;;;;18.42;4.57;;;;;;;25.63;35.34;101291.19;4998715;28;20307;-75
2022/05/18 08:35:37;;;;;;;13.02;3.40;;;;;;;25.49;35.03;101287.63;4998952;28;20034;-75
2022/05/18 08:38:03;;;;;;;16.30;3.45;;;;;;;25.71;34.31;101286.38;4997428;28;20954;-75
2022/05/18 08:40:28;;;;;;;12.00;3.00;;;;;;;25.73;34.56;101287.59;4993398;28;20044;-75
2022/05/18 08:42:56;;;;;;;8.80;3.38;;;;;;;25.78;34.92;101286.41;5005416;28;20034;-75
2022/05/18 08:45:25;;;;;;;17.02;3.33;;;;;;;25.81;34.54;101274.38;4998457;28;20038;-75
2022/05/18 08:48:07;;;;;;;16.20;3.25;;;;;;;25.77;34.21;101290.41;4999771;28;19997;-75
2022/05/18 08:50:34;;;;;;;10.10;3.17;;;;;;;25.74;34.43;101288.38;4998330;28;20049;-75
2022/05/18 08:53:05;;;;;;;20.08;4.10;;;;;;;25.71;34.32;101280.78;4990499;28;20014;-75
2022/05/18 08:55:58;;;;;;;10.77;3.03;;;;;;;25.65;33.73;101299.19;4979300;28;20400;-74
2022/05/18 08:58:30;;;;;;;9.00;3.10;;;;;;;25.56;33.45;101294.00;4998145;28;20109;-74
2022/05/18 09:00:59;;;;;;;14.07;2.92;;;;;;;25.75;33.32;101291.97;5007744;28;20057;-74
2022/05/18 09:03:41;;;;;;;12.27;4.63;;;;;;;25.83;33.09;101288.75;5001893;28;20052;-74
2022/05/18 09:06:26;;;;;;;16.80;3.63;;;;;;;25.77;33.70;101284.81;5000844;28;20030;-74
2022/05/18 09:11:47;;;;;;;12.88;3.60;;;;;;;25.37;34.00;101294.41;5014887;28;20052;-74
2022/05/18 09:14:17;;;;;;;13.98;4.22;;;;;;;25.39;34.08;101303.19;5000914;28;21179;-74
2022/05/18 09:16:54;;;;;;;15.82;3.75;;;;;;;25.41;33.87;101293.22;4999968;28;20077;-75
2022/05/18 09:19:41;;;;;;;14.95;4.55;;;;;;;25.24;34.64;101296.84;4999805;28;20042;-75
2022/05/18 09:22:13;;;;;;;14.05;2.85;;;;;;;25.23;34.84;101298.00;5000537;28;20018;-74
2022/05/18 09:24:51;;;;;;;13.77;4.13;;;;;;;25.58;34.60;101288.00;5014401;28;20026;-74
2022/05/18 09:27:41;;;;;;;15.70;3.20;;;;;;;25.61;34.09;101287.97;5014106;28;20018;-74
2022/05/18 09:30:19;;;;;;;17.85;3.83;;;;;;;25.99;34.07;101279.91;5000863;28;20512;-74
2022/05/18 09:33:12;;;;;;;11.70;3.65;;;;;;;26.11;33.76;101270.28;5012982;28;20092;-74
2022/05/18 09:35:52;;;;;;;12.30;3.42;;;;;;;26.28;33.41;101275.78;5014193;28;20061;-74
2022/05/18 09:38:51;;;;;;;19.15;5.95;;;;;;;26.51;33.57;101260.47;5013799;28;20041;-74
2022/05/18 09:41:20;;;;;;;12.52;2.88;;;;;;;26.43;33.02;101251.31;5005422;28;20400;-74
2022/05/18 09:44:09;;;;;;;10.77;3.00;;;;;;;26.51;31.98;101255.66;4995848;28;20746;-74
2022/05/18 09:46:36;;;;;;;13.63;3.88;;;;;;;26.69;32.37;101254.78;4997756;28;20459;-75
2022/05/18 09:49:11;;;;;;;9.05;3.03;;;;;;;26.31;31.99;101260.19;5003623;28;20038;-80
2022/05/18 09:51:37;;;;;;;9.88;3.05;;;;;;;26.43;32.23;101264.53;5012366;28;20061;-75
2022/05/18 09:54:04;;;;;;;11.52;2.83;;;;;;;26.31;32.78;101260.19;5013787;28;20080;-75
2022/05/18 09:56:52;;;;;;;10.63;2.83;;;;;;;25.98;32.76;101258.72;5012499;28;20048;-80
2022/05/18 09:59:23;;;;;;;14.52;3.17;;;;;;;26.27;32.35;101262.19;5013068;28;20096;-75
2022/05/18 10:07:38;;;;;;;9.25;2.95;;;;;;;26.68;31.51;101237.16;5014149;28;20033;-75
2022/05/18 10:10:14;;;;;;;18.70;3.70;;;;;;;27.06;32.19;101249.31;5011984;28;20026;-75
2022/05/18 10:12:47;;;;;;;16.50;3.85;;;;;;;27.06;31.87;101246.50;5013827;28;20022;-75
2022/05/18 10:15:19;;;;;;;16.83;3.63;;;;;;;27.11;31.66;101242.44;5013464;28;20034;-75
2022/05/18 10:17:53;;;;;;;11.90;3.05;;;;;;;27.38;32.05;101234.97;5013197;28;20101;-75
2022/05/18 10:20:32;;;;;;;14.20;3.45;;;;;;;27.24;32.12;101237.13;4997723;28;20026;-75
2022/05/18 10:23:00;;;;;;;30.10;7.22;;;;;;;27.40;32.79;101230.94;4998683;28;20621;-74
2022/05/18 10:25:40;;;;;;;23.48;5.10;;;;;;;27.06;33.96;101226.88;4994751;28;20448;-74
2022/05/18 10:28:25;;;;;;;23.48;6.60;;;;;;;27.07;34.52;101227.66;4997645;28;20034;-74
2022/05/18 10:31:01;;;;;;;28.25;6.15;;;;;;;27.18;34.72;101227.53;4997365;28;20105;-75
2022/05/18 10:33:36;;;;;;;26.58;7.07;;;;;;;26.85;35.32;101224.22;4996437;28;20391;-74
2022/05/18 10:36:12;;;;;;;26.67;7.05;;;;;;;26.92;35.31;101209.34;4984093;28;20052;-75
2022/05/18 10:38:48;;;;;;;14.80;4.30;;;;;;;27.08;35.02;101212.41;4998455;28;20021;-75
2022/05/18 10:41:17;;;;;;;14.45;4.53;;;;;;;27.31;34.23;101211.78;4995961;28;20022;-75
2022/05/18 10:44:01;;;;;;;15.48;3.85;;;;;;;27.24;33.61;101211.88;5002854;28;20042;-74
2022/05/18 10:47:08;;;;;;;16.13;4.88;;;;;;;27.32;33.64;101208.56;5009542;28;20026;-75
2022/05/18 10:49:36;;;;;;;30.02;5.28;;;;;;;27.46;33.67;101213.22;4991073;28;20034;-75
2022/05/18 10:52:29;;;;;;;26.55;7.50;;;;;;;27.25;34.41;101208.63;4998606;28;20033;-75
2022/05/18 10:55:03;;;;;;;15.30;5.13;;;;;;;27.27;34.46;101194.19;4994691;28;20101;-75
2022/05/18 10:57:35;;;;;;;19.45;4.32;;;;;;;27.27;34.18;101197.78;4996259;28;20117;-75
2022/05/18 11:00:09;;;;;;;13.60;3.88;;;;;;;27.37;33.46;101207.31;4996590;28;20535;-76
2022/05/18 11:02:55;;;;;;;17.17;4.32;;;;;;;27.52;33.00;101194.72;4992776;28;20376;-77
2022/05/18 11:05:39;;;;;;;13.95;4.85;;;;;;;27.77;33.09;101196.47;4996725;28;20025;-75
2022/05/18 11:08:11;;;;;;;20.80;5.03;;;;;;;27.55;33.66;101196.69;4997046;28;20029;-76
2022/05/18 11:11:02;;;;;;;17.33;4.82;;;;;;;27.64;33.40;101196.97;4994640;28;20033;-75
2022/05/18 11:13:38;;;;;;;16.60;4.57;;;;;;;27.57;33.19;101193.44;4991681;28;20042;-75
2022/05/18 11:16:20;;;;;;;18.38;4.78;;;;;;;27.56;33.71;101173.00;5005074;28;20075;-75
2022/05/18 11:18:55;;;;;;;28.52;7.45;;;;;;;27.35;34.03;101190.88;5012665;28;20040;-74
2022/05/18 11:21:48;;;;;;;23.98;7.07;;;;;;;27.66;33.83;101176.94;5011514;28;20480;-74
2022/05/18 11:24:46;;;;;;;26.48;5.45;;;;;;;27.42;34.36;101178.00;5012336;28;20468;-74
2022/05/18 11:27:40;;;;;;;24.35;5.75;;;;;;;26.83;34.97;101187.38;4996808;28;20057;-74
2022/05/18 11:30:22;;;;;;;20.08;4.65;;;;;;;26.82;35.34;101180.97;5003768;28;20388;-74
2022/05/18 11:33:02;;;;;;;34.80;7.35;;;;;;;27.24;34.61;101181.00;4996928;28;20041;-75
2022/05/18 11:35:40;;;;;;;27.52;5.65;;;;;;;27.19;35.01;101182.25;4995097;28;20383;-74
2022/05/18 11:38:14;;;;;;;12.32;4.32;;;;;;;26.71;34.58;101182.28;4995376;28;20045;-74
2022/05/18 11:41:02;;;;;;;14.00;4.72;;;;;;;26.75;34.75;101160.59;4994649;28;20038;-74
2022/05/18 11:43:54;;;;;;;34.75;6.50;;;;;;;26.89;34.46;101173.69;4997086;28;20253;-75
2022/05/18 11:46:38;;;;;;;21.83;4.55;;;;;;;27.02;34.16;101155.94;5000196;28;20018;-75
2022/05/18 11:49:10;;;;;;;19.52;4.35;;;;;;;26.86;34.13;101160.53;5012182;28;20491;-75
2022/05/18 11:52:00;;;;;;;19.83;4.63;;;;;;;27.13;33.87;101146.66;5009915;28;20076;-74
2022/05/18 11:54:38;;;;;;;19.63;4.75;;;;;;;26.94;34.43;101156.44;4996010;28;20081;-75